createdAt,value
2023-05-24T00:01:25.626Z,14.11
2023-05-24T00:03:53.818Z,13.88
2023-05-24T00:06:21.986Z,13.58
2023-05-24T00:08:51.140Z,13.74
2023-05-24T00:11:19.082Z,13.95
2023-05-24T00:13:46.836Z,13.70
2023-05-24T00:16:14.831Z,13.66
2023-05-24T00:18:47.082Z,13.35
2023-05-24T00:21:15.403Z,13.44
2023-05-24T00:23:44.057Z,13.90
2023-05-24T00:26:13.197Z,13.57
2023-05-24T00:28:41.081Z,13.73
2023-05-24T00:31:09.203Z,13.24
2023-05-24T00:33:37.260Z,13.42
2023-05-24T00:36:05.924Z,13.70
2023-05-24T00:38:33.682Z,13.34
2023-05-24T00:41:01.478Z,13.70
2023-05-24T00:43:30.642Z,13.58
2023-05-24T00:46:15.701Z,13.94
2023-05-24T00:48:44.044Z,13.50
2023-05-24T00:51:13.481Z,13.45
2023-05-24T00:53:43.265Z,13.12
2023-05-24T00:56:12.670Z,13.56
2023-05-24T00:58:42.341Z,13.49
2023-05-24T01:01:10.366Z,13.57
2023-05-24T01:03:39.638Z,13.77
2023-05-24T01:06:09.305Z,13.67
2023-05-24T01:08:47.602Z,13.81
2023-05-24T01:11:27.554Z,13.78
2023-05-24T01:14:05.107Z,13.52
2023-05-24T01:16:39.546Z,13.63
2023-05-24T01:19:30.494Z,13.78
2023-05-24T01:22:12.048Z,13.66
2023-05-24T01:24:54.691Z,13.84
2023-05-24T01:27:25.056Z,13.97
2023-05-24T01:29:54.279Z,13.84
2023-05-24T01:32:22.329Z,13.57
2023-05-24T01:34:50.573Z,13.74
2023-05-24T01:37:18.376Z,13.92
2023-05-24T01:39:47.728Z,13.89
2023-05-24T01:42:27.181Z,14.05
2023-05-24T01:45:07.096Z,13.56
2023-05-24T01:47:48.340Z,13.66
2023-05-24T01:50:21.541Z,13.83
2023-05-24T01:52:51.558Z,13.74
2023-05-24T01:55:19.775Z,14.02
2023-05-24T01:57:51.700Z,13.55
2023-05-24T02:00:21.029Z,13.78
2023-05-24T02:02:49.449Z,14.18
2023-05-24T02:05:17.290Z,13.93
2023-05-24T02:07:45.044Z,14.18
2023-05-24T02:10:12.903Z,14.14
2023-05-24T02:12:40.705Z,14.03
2023-05-24T02:15:11.586Z,13.76
2023-05-24T02:17:40.665Z,14.42
2023-05-24T02:20:09.431Z,14.30
2023-05-24T02:22:37.212Z,14.39
2023-05-24T02:25:05.577Z,14.27
2023-05-24T02:27:33.373Z,14.42
2023-05-24T02:30:01.150Z,13.98
2023-05-24T02:32:31.391Z,14.45
2023-05-24T02:35:01.828Z,14.05
2023-05-24T02:37:29.677Z,14.15
2023-05-24T02:39:57.480Z,14.32
2023-05-24T02:42:25.253Z,14.37
2023-05-24T02:44:53.453Z,14.51
2023-05-24T02:47:21.196Z,14.60
2023-05-24T02:49:50.393Z,14.77
2023-05-24T02:52:21.641Z,14.51
2023-05-24T02:54:49.788Z,14.56
2023-05-24T02:57:18.158Z,14.13
2023-05-24T02:59:45.938Z,14.71
2023-05-24T03:02:14.865Z,14.50
2023-05-24T03:04:42.742Z,14.44
2023-05-24T03:07:11.885Z,14.58
2023-05-24T03:09:39.706Z,14.70
2023-05-24T03:12:08.065Z,14.30
2023-05-24T03:14:35.839Z,14.96
2023-05-24T03:17:03.725Z,15.11
2023-05-24T03:19:31.618Z,14.81
2023-05-24T03:21:59.381Z,14.60
2023-05-24T03:24:28.541Z,14.46
2023-05-24T03:26:56.326Z,14.47
2023-05-24T03:29:24.072Z,14.55
2023-05-24T03:31:51.999Z,14.64
2023-05-24T03:34:19.792Z,14.80
2023-05-24T03:36:47.539Z,14.76
2023-05-24T03:39:15.306Z,14.65
2023-05-24T03:41:44.440Z,14.46
2023-05-24T03:44:12.209Z,14.79
2023-05-24T03:46:40.072Z,14.83
2023-05-24T03:49:08.097Z,14.84
2023-05-24T03:51:36.190Z,14.74
2023-05-24T03:54:04.021Z,14.87
2023-05-24T03:56:31.786Z,15.01
2023-05-24T03:59:03.932Z,15.03
2023-05-24T04:01:34.580Z,14.97
2023-05-24T04:04:03.665Z,14.58
2023-05-24T04:06:31.602Z,15.18
2023-05-24T04:09:00.811Z,15.29
2023-05-24T04:11:29.145Z,15.51
2023-05-24T04:14:00.510Z,15.02
2023-05-24T04:16:34.044Z,15.12
2023-05-24T04:19:03.909Z,15.67
2023-05-24T04:21:32.463Z,15.07
2023-05-24T04:24:01.600Z,15.32
2023-05-24T04:26:29.822Z,15.55
2023-05-24T04:28:58.274Z,15.12
2023-05-24T04:31:26.311Z,15.53
2023-05-24T04:33:55.639Z,15.40
2023-05-24T04:36:25.186Z,15.64
2023-05-24T04:38:53.641Z,14.87
2023-05-24T04:41:22.417Z,15.31
2023-05-24T04:43:50.371Z,15.25
2023-05-24T04:46:18.241Z,15.29
2023-05-24T04:48:45.990Z,15.50
2023-05-24T04:51:15.196Z,15.46
2023-05-24T04:53:43.121Z,15.53
2023-05-24T04:56:14.869Z,15.27
2023-05-24T04:58:42.741Z,15.04
2023-05-24T05:01:10.544Z,14.98
2023-05-24T05:03:38.359Z,15.36
2023-05-24T05:06:06.348Z,15.12
2023-05-24T05:08:35.506Z,15.43
2023-05-24T05:11:03.331Z,14.94
2023-05-24T05:13:31.182Z,15.37
2023-05-24T05:15:58.968Z,15.02
2023-05-24T05:18:26.756Z,15.10
2023-05-24T05:20:54.528Z,15.41
2023-05-24T05:23:22.291Z,15.50
2023-05-24T05:25:51.446Z,15.35
2023-05-24T05:28:19.489Z,15.11
2023-05-24T05:30:47.607Z,15.88
2023-05-24T05:33:15.578Z,15.44
2023-05-24T05:35:43.369Z,15.69
2023-05-24T05:38:11.195Z,15.55
2023-05-24T05:40:38.931Z,15.45
2023-05-24T05:43:09.287Z,15.55
2023-05-24T05:45:37.020Z,15.64
2023-05-24T05:48:04.975Z,15.72
2023-05-24T05:50:32.757Z,15.69
2023-05-24T05:53:00.535Z,15.32
2023-05-24T05:55:28.309Z,16.16
2023-05-24T05:57:56.062Z,16.48
2023-05-24T06:00:25.312Z,16.56
2023-05-24T06:02:53.185Z,16.46
2023-05-24T06:05:21.465Z,15.85
2023-05-24T06:07:49.314Z,16.15
2023-05-24T06:10:17.319Z,15.49
2023-05-24T06:12:45.076Z,16.33
2023-05-24T06:15:14.196Z,15.92
2023-05-24T06:17:44.197Z,15.97
2023-05-24T06:20:15.721Z,16.17
2023-05-24T06:22:44.998Z,16.10
2023-05-24T06:25:14.738Z,16.01
2023-05-24T06:27:42.662Z,15.92
2023-05-24T06:30:11.290Z,16.33
2023-05-24T06:32:39.129Z,16.77
2023-05-24T06:35:09.402Z,16.81
2023-05-24T06:37:38.605Z,16.64
2023-05-24T06:40:09.411Z,17.56
2023-05-24T06:42:37.590Z,16.14
2023-05-24T06:45:05.952Z,16.34
2023-05-24T06:47:33.801Z,16.55
2023-05-24T06:50:02.136Z,16.27
2023-05-24T06:52:31.290Z,16.58
2023-05-24T06:54:59.198Z,16.20
2023-05-24T06:57:27.059Z,16.41
2023-05-24T06:59:54.796Z,16.42
2023-05-24T07:02:26.621Z,15.74
2023-05-24T07:04:54.591Z,16.52
2023-05-24T07:07:22.477Z,16.95
2023-05-24T07:09:51.856Z,16.71
2023-05-24T07:12:19.620Z,16.79
2023-05-24T07:14:47.419Z,17.26
2023-05-24T07:17:15.246Z,16.90
2023-05-24T07:19:43.046Z,16.99
2023-05-24T07:22:11.141Z,16.95
2023-05-24T07:24:39.019Z,16.75
2023-05-24T07:27:08.250Z,17.11
2023-05-24T07:29:36.090Z,17.74
2023-05-24T07:32:04.092Z,17.26
2023-05-24T07:34:32.118Z,16.99
2023-05-24T07:37:00.692Z,17.47
2023-05-24T07:39:28.905Z,18.23
2023-05-24T07:41:56.864Z,17.42
2023-05-24T07:44:26.224Z,17.88
2023-05-24T07:46:55.705Z,17.61
2023-05-24T07:49:23.731Z,17.33
2023-05-24T07:51:51.949Z,17.32
2023-05-24T07:54:20.108Z,17.46
2023-05-24T07:56:47.919Z,16.91
2023-05-24T07:59:15.928Z,16.67
2023-05-24T08:01:45.140Z,17.18
2023-05-24T08:04:13.309Z,16.88
2023-05-24T08:06:41.791Z,17.66
2023-05-24T08:09:10.386Z,17.53
2023-05-24T08:11:38.142Z,17.68
2023-05-24T08:14:05.996Z,17.49
2023-05-24T08:16:33.842Z,17.48
2023-05-24T08:19:02.993Z,17.67
2023-05-24T08:21:31.865Z,17.80
2023-05-24T08:24:00.536Z,17.50
2023-05-24T08:26:28.295Z,17.43
2023-05-24T08:28:56.098Z,18.43
2023-05-24T08:31:23.930Z,19.11
2023-05-24T08:33:52.885Z,17.79
2023-05-24T08:36:22.261Z,18.45
2023-05-24T08:38:50.048Z,17.43
2023-05-24T08:41:17.836Z,18.65
2023-05-24T08:43:47.128Z,18.72
2023-05-24T08:46:16.367Z,19.11
2023-05-24T08:48:47.450Z,19.12
2023-05-24T08:51:16.460Z,18.97
2023-05-24T08:53:48.852Z,19.02
2023-05-24T08:56:18.336Z,19.13
2023-05-24T08:58:47.153Z,19.36
2023-05-24T09:01:15.910Z,18.86
2023-05-24T09:03:44.755Z,19.19
2023-05-24T09:06:14.017Z,19.10
2023-05-24T09:08:44.128Z,19.86
2023-05-24T09:11:16.398Z,19.03
2023-05-24T09:13:46.471Z,19.40
2023-05-24T09:16:15.226Z,19.72
2023-05-24T09:18:43.186Z,19.25
2023-05-24T09:21:12.055Z,19.24
2023-05-24T09:23:40.282Z,19.11
2023-05-24T09:26:09.755Z,19.75
2023-05-24T09:28:41.744Z,18.55
2023-05-24T09:31:09.594Z,18.96
2023-05-24T09:33:37.426Z,19.22
2023-05-24T09:36:07.201Z,19.69
2023-05-24T09:38:36.477Z,18.29
2023-05-24T09:41:06.427Z,20.00
2023-05-24T09:43:36.153Z,19.81
2023-05-24T09:46:05.712Z,19.63
2023-05-24T09:48:33.518Z,19.71
2023-05-24T09:51:05.608Z,19.52
2023-05-24T09:53:35.008Z,19.79
2023-05-24T09:56:05.436Z,20.28
2023-05-24T09:58:34.229Z,20.99
2023-05-24T10:01:08.633Z,20.94
2023-05-24T10:03:37.863Z,21.15
2023-05-24T10:06:07.768Z,20.10
2023-05-24T10:08:36.577Z,20.75
2023-05-24T10:11:05.779Z,19.72
2023-05-24T10:13:35.815Z,19.86
2023-05-24T10:16:04.041Z,19.16
2023-05-24T10:18:33.426Z,19.10
2023-05-24T10:21:02.915Z,19.55
2023-05-24T10:23:32.490Z,19.45
2023-05-24T10:26:06.521Z,19.21
2023-05-24T10:28:37.315Z,18.90
2023-05-24T10:31:11.709Z,19.96
2023-05-24T10:33:43.529Z,20.36
2023-05-24T10:36:13.788Z,19.10
2023-05-24T10:38:42.087Z,19.38
2023-05-24T10:41:10.149Z,20.53
2023-05-24T10:43:39.348Z,20.90
2023-05-24T10:46:10.579Z,22.55
2023-05-24T10:48:41.294Z,22.22
2023-05-24T10:51:32.903Z,20.70
2023-05-24T10:54:13.041Z,19.74
2023-05-24T10:56:45.777Z,20.29
2023-05-24T10:59:31.496Z,21.76
2023-05-24T11:02:01.008Z,22.78
2023-05-24T11:04:37.523Z,23.12
2023-05-24T11:07:06.530Z,22.97
2023-05-24T11:09:35.066Z,23.17
2023-05-24T11:12:07.400Z,24.48
2023-05-24T11:14:38.422Z,22.44
2023-05-24T11:17:06.714Z,22.09
2023-05-24T11:19:37.414Z,23.41
2023-05-24T11:22:08.159Z,22.33
2023-05-24T11:24:36.382Z,21.64
2023-05-24T11:27:06.112Z,21.04
2023-05-24T11:29:36.083Z,21.61
2023-05-24T11:32:07.929Z,22.75
2023-05-24T11:34:37.226Z,23.27
2023-05-24T11:37:06.441Z,22.90
2023-05-24T11:39:35.722Z,24.54
2023-05-24T11:42:06.430Z,23.40
2023-05-24T11:44:34.813Z,23.41
2023-05-24T11:47:03.518Z,24.77
2023-05-24T11:49:31.373Z,22.89
2023-05-24T11:52:00.983Z,21.22
2023-05-24T11:54:29.583Z,22.28
2023-05-24T11:56:57.381Z,22.29
2023-05-24T11:59:27.335Z,23.20
2023-05-24T12:02:00.075Z,24.48
2023-05-24T12:04:28.335Z,24.70
2023-05-24T12:06:56.665Z,23.43
2023-05-24T12:09:26.083Z,23.93
2023-05-24T12:11:54.748Z,23.09
2023-05-24T12:14:26.997Z,22.18
2023-05-24T12:16:57.211Z,24.26
2023-05-24T12:21:58.711Z,24.33
2023-05-24T12:24:28.881Z,23.98
2023-05-24T12:27:01.798Z,23.36
2023-05-24T12:29:34.247Z,23.85
2023-05-24T12:32:02.036Z,23.59
2023-05-24T12:34:30.426Z,25.36
2023-05-24T12:36:58.362Z,24.33
2023-05-24T12:39:31.784Z,24.17
2023-05-24T12:42:01.659Z,23.45
2023-05-24T12:44:31.343Z,24.78
2023-05-24T12:46:59.870Z,23.77
2023-05-24T12:49:27.915Z,24.25
2023-05-24T12:51:56.874Z,24.52
2023-05-24T12:54:25.730Z,25.26
2023-05-24T12:56:57.294Z,24.72
2023-05-24T12:59:27.358Z,24.41
2023-05-24T13:01:55.309Z,24.20
2023-05-24T13:04:26.401Z,24.90
2023-05-24T13:06:54.588Z,22.90
2023-05-24T13:09:23.724Z,24.04
2023-05-24T13:11:52.223Z,24.12
2023-05-24T13:14:21.408Z,24.04
2023-05-24T13:16:49.768Z,24.14
2023-05-24T13:19:17.838Z,23.41
2023-05-24T13:21:45.779Z,24.21
2023-05-24T13:24:14.691Z,22.90
2023-05-24T13:26:42.514Z,23.77
2023-05-24T13:31:42.802Z,24.10
2023-05-24T13:34:11.293Z,25.32
2023-05-24T13:36:39.499Z,24.68
2023-05-24T13:41:41.365Z,23.58
2023-05-24T13:44:09.899Z,23.93
2023-05-24T13:46:38.255Z,23.10
2023-05-24T13:49:09.234Z,24.37
2023-05-24T13:51:37.286Z,23.19
2023-05-24T13:54:07.269Z,23.91
2023-05-24T13:56:35.424Z,24.38
2023-05-24T13:59:04.801Z,24.15
2023-05-24T14:01:33.749Z,23.91
2023-05-24T14:04:03.428Z,23.45
2023-05-24T14:06:32.658Z,23.26
2023-05-24T14:09:01.002Z,23.11
2023-05-24T14:11:31.531Z,24.55
2023-05-24T14:16:31.214Z,24.23
2023-05-24T14:18:59.354Z,25.14
2023-05-24T14:21:27.592Z,24.03
2023-05-24T14:23:56.910Z,24.31
2023-05-24T14:26:24.756Z,24.14
2023-05-24T14:28:56.116Z,25.42
2023-05-24T14:31:24.482Z,24.77
2023-05-24T14:33:52.284Z,24.52
2023-05-24T14:36:20.170Z,24.39
2023-05-24T14:38:47.949Z,24.85
2023-05-24T14:41:17.033Z,24.91
2023-05-24T14:43:44.997Z,24.73
2023-05-24T14:46:12.769Z,24.80
2023-05-24T14:48:41.500Z,24.97
2023-05-24T14:51:09.542Z,25.18
2023-05-24T14:53:37.387Z,24.62
2023-05-24T14:56:07.480Z,24.77
2023-05-24T14:58:36.901Z,23.99
2023-05-24T15:01:04.761Z,23.83
2023-05-24T15:03:32.651Z,23.83
2023-05-24T15:06:00.600Z,23.82
2023-05-24T15:08:29.536Z,23.68
2023-05-24T15:10:58.847Z,25.47
2023-05-24T15:13:27.010Z,24.82
2023-05-24T15:15:57.616Z,23.86
2023-05-24T15:18:27.980Z,24.23
2023-05-24T15:20:56.368Z,23.54
2023-05-24T15:23:26.683Z,23.51
2023-05-24T15:25:54.633Z,22.96
2023-05-24T15:28:23.967Z,23.81
2023-05-24T15:30:54.042Z,24.04
2023-05-24T15:33:23.385Z,22.36
2023-05-24T15:35:51.265Z,23.10
2023-05-24T15:38:19.045Z,24.15
2023-05-24T15:40:47.055Z,23.69
2023-05-24T15:43:15.662Z,22.68
2023-05-24T15:45:43.792Z,24.52
2023-05-24T15:48:12.742Z,23.57
2023-05-24T15:53:12.691Z,24.30
2023-05-24T15:55:40.479Z,23.43
2023-05-24T15:58:08.228Z,23.52
2023-05-24T16:00:35.985Z,23.06
2023-05-24T16:03:03.864Z,23.23
2023-05-24T16:05:31.757Z,24.04
2023-05-24T16:08:02.513Z,23.91
2023-05-24T16:10:30.783Z,23.81
2023-05-24T16:12:58.679Z,24.26
2023-05-24T16:15:26.912Z,23.36
2023-05-24T16:17:54.751Z,24.46
2023-05-24T16:20:22.706Z,23.13
2023-05-24T16:22:50.656Z,23.28
2023-05-24T16:25:19.737Z,22.29
2023-05-24T16:27:47.641Z,22.49
2023-05-24T16:30:15.663Z,23.35
2023-05-24T16:32:45.376Z,22.87
2023-05-24T16:35:13.356Z,22.32
2023-05-24T16:37:41.200Z,23.74
2023-05-24T16:40:09.683Z,23.23
2023-05-24T16:42:38.837Z,23.80
2023-05-24T16:45:07.683Z,23.85
2023-05-24T16:47:35.912Z,22.84
2023-05-24T16:50:03.946Z,23.62
2023-05-24T16:52:31.717Z,22.80
2023-05-24T16:55:00.203Z,22.73
2023-05-24T16:57:28.008Z,23.21
2023-05-24T16:59:58.157Z,22.59
2023-05-24T17:02:26.442Z,22.81
2023-05-24T17:04:54.392Z,22.73
2023-05-24T17:07:22.162Z,22.50
2023-05-24T17:09:51.272Z,22.97
2023-05-24T17:12:19.128Z,22.75
2023-05-24T17:14:47.265Z,23.61
2023-05-24T17:17:16.427Z,22.98
2023-05-24T17:19:44.200Z,22.44
2023-05-24T17:22:12.260Z,22.85
2023-05-24T17:24:40.033Z,22.12
2023-05-24T17:27:07.809Z,22.67
2023-05-24T17:29:36.160Z,22.86
2023-05-24T17:32:04.446Z,22.62
2023-05-24T17:34:33.682Z,23.05
2023-05-24T17:37:01.691Z,22.57
2023-05-24T17:39:29.671Z,21.80
2023-05-24T17:41:57.419Z,21.67
2023-05-24T17:44:25.202Z,21.73
2023-05-24T17:46:53.667Z,21.68
2023-05-24T17:49:21.444Z,22.13
2023-05-24T17:51:50.626Z,22.26
2023-05-24T17:54:18.398Z,22.53
2023-05-24T17:56:46.174Z,21.48
2023-05-24T17:59:13.960Z,21.95
2023-05-24T18:01:41.829Z,21.23
2023-05-24T18:04:09.625Z,21.26
2023-05-24T18:06:37.748Z,21.30
2023-05-24T18:09:06.913Z,20.61
2023-05-24T18:11:34.761Z,21.15
2023-05-24T18:14:03.917Z,21.04
2023-05-24T18:16:32.194Z,20.33
2023-05-24T18:19:00.027Z,20.98
2023-05-24T18:21:27.846Z,20.49
2023-05-24T18:23:55.604Z,20.73
2023-05-24T18:26:24.752Z,20.09
2023-05-24T18:28:52.530Z,20.62
2023-05-24T18:31:20.461Z,20.33
2023-05-24T18:33:48.320Z,19.85
2023-05-24T18:36:16.570Z,19.15
2023-05-24T18:38:47.205Z,19.54
2023-05-24T18:41:16.530Z,19.24
2023-05-24T18:43:45.704Z,19.25
2023-05-24T18:46:14.979Z,18.88
2023-05-24T18:48:43.255Z,18.77
2023-05-24T18:51:11.243Z,18.80
2023-05-24T18:53:40.072Z,18.61
2023-05-24T18:56:08.098Z,18.66
2023-05-24T18:58:35.876Z,18.44
2023-05-24T19:01:05.066Z,18.74
2023-05-24T19:03:32.974Z,18.99
2023-05-24T19:06:00.835Z,18.91
2023-05-24T19:08:28.596Z,18.71
2023-05-24T19:10:56.394Z,18.61
2023-05-24T19:13:24.188Z,18.19
2023-05-24T19:15:53.582Z,18.32
2023-05-24T19:18:23.049Z,18.93
2023-05-24T19:20:50.914Z,18.43
2023-05-24T19:23:18.680Z,18.28
2023-05-24T19:25:50.095Z,17.80
2023-05-24T19:28:18.254Z,17.76
2023-05-24T19:30:46.016Z,17.69
2023-05-24T19:33:13.818Z,18.13
2023-05-24T19:35:43.197Z,18.41
2023-05-24T19:38:12.011Z,18.38
2023-05-24T19:40:39.847Z,18.33
2023-05-24T19:43:07.701Z,18.21
2023-05-24T19:45:35.444Z,18.54
2023-05-24T19:48:04.925Z,18.54
2023-05-24T19:50:32.796Z,18.64
2023-05-24T19:53:01.940Z,18.18
2023-05-24T19:55:30.010Z,18.59
2023-05-24T19:57:57.780Z,18.54
2023-05-24T20:00:25.611Z,18.07
2023-05-24T20:02:53.503Z,17.69
2023-05-24T20:05:21.513Z,18.06
2023-05-24T20:07:49.304Z,18.15
2023-05-24T20:10:18.431Z,17.58
2023-05-24T20:12:46.641Z,17.63
2023-05-24T20:15:17.032Z,17.53
2023-05-24T20:17:46.500Z,17.99
2023-05-24T20:20:14.552Z,18.32
2023-05-24T20:22:42.499Z,17.73
2023-05-24T20:25:10.846Z,17.52
2023-05-24T20:27:41.782Z,18.02
2023-05-24T20:30:10.996Z,17.62
2023-05-24T20:32:39.143Z,17.43
2023-05-24T20:35:10.549Z,17.22
2023-05-24T20:37:38.337Z,17.53
2023-05-24T20:40:07.405Z,17.31
2023-05-24T20:42:35.652Z,17.42
2023-05-24T20:45:06.442Z,17.12
2023-05-24T20:47:34.256Z,16.73
2023-05-24T20:50:02.016Z,16.62
2023-05-24T20:52:29.775Z,16.66
2023-05-24T20:54:57.568Z,16.85
2023-05-24T20:57:25.329Z,17.21
2023-05-24T20:59:53.254Z,16.87
2023-05-24T21:02:22.472Z,17.49
2023-05-24T21:04:50.548Z,17.12
2023-05-24T21:07:18.345Z,17.37
2023-05-24T21:09:46.100Z,17.19
2023-05-24T21:12:13.882Z,17.21
2023-05-24T21:14:42.227Z,17.13
2023-05-24T21:17:10.115Z,17.06
2023-05-24T21:19:39.374Z,16.97
2023-05-24T21:22:07.255Z,16.64
2023-05-24T21:24:35.018Z,16.68
2023-05-24T21:27:02.781Z,16.80
2023-05-24T21:29:30.640Z,16.41
2023-05-24T21:31:58.445Z,16.32
2023-05-24T21:34:27.337Z,16.42
2023-05-24T21:36:56.469Z,16.41
2023-05-24T21:39:24.211Z,16.35
2023-05-24T21:41:52.001Z,16.93
2023-05-24T21:44:19.758Z,16.45
2023-05-24T21:46:47.577Z,16.15
2023-05-24T21:49:17.188Z,16.26
2023-05-24T21:51:45.277Z,16.22
2023-05-24T21:54:14.452Z,16.45
2023-05-24T21:56:42.254Z,16.10
2023-05-24T21:59:10.016Z,15.90
2023-05-24T22:01:37.942Z,15.93
2023-05-24T22:04:06.586Z,16.03
2023-05-24T22:06:34.390Z,15.99
2023-05-24T22:09:02.219Z,16.21
2023-05-24T22:11:31.369Z,16.36
2023-05-24T22:13:59.135Z,16.49
2023-05-24T22:16:26.936Z,16.04
2023-05-24T22:18:56.128Z,16.36
2023-05-24T22:21:23.974Z,16.40
2023-05-24T22:23:52.462Z,16.27
2023-05-24T22:26:20.230Z,16.29
2023-05-24T22:29:00.529Z,15.95
2023-05-24T22:31:29.546Z,16.16
2023-05-24T22:34:01.117Z,16.23
2023-05-24T22:36:30.045Z,16.18
2023-05-24T22:38:57.821Z,16.59
2023-05-24T22:41:26.134Z,17.05
2023-05-24T22:43:56.472Z,16.64
2023-05-24T22:46:24.876Z,16.70
2023-05-24T22:48:53.321Z,16.48
2023-05-24T22:51:21.090Z,16.69
2023-05-24T22:53:49.295Z,17.29
2023-05-24T22:56:17.995Z,16.85
2023-05-24T22:58:45.810Z,17.22
2023-05-24T23:01:16.037Z,17.22
2023-05-24T23:03:43.799Z,17.01
2023-05-24T23:06:12.324Z,16.97
2023-05-24T23:23:49.552Z,16.84
2023-05-24T23:26:17.263Z,16.99
2023-05-24T23:28:45.103Z,17.15
2023-05-24T23:31:12.870Z,17.14
2023-05-24T23:33:40.579Z,16.87
2023-05-24T23:36:09.836Z,17.42
2023-05-24T23:38:37.753Z,17.23
2023-05-24T23:41:06.885Z,17.40
2023-05-24T23:43:34.638Z,17.11
2023-05-24T23:46:02.378Z,16.65
2023-05-24T23:48:30.166Z,16.91
2023-05-24T23:50:57.905Z,16.97
2023-05-24T23:53:25.691Z,17.14
2023-05-24T23:55:53.466Z,17.31
2023-05-24T23:58:22.577Z,17.31
